Terminal Aerodrome Forecast
Issued by NWS Amarillo, TX

Home | Current Version | Previous Version | Text Only | Print | Product List | Glossary On
Versions: 1 2 3 4 5 6 7 8 9 10 11 12 13 14 15 16 17 18 19
000
FTUS44 KAMA 010500
TAFGUY
TAF
KGUY 010520Z 0106/0206 VRB03KT P6SM BKN250
     FM011500 31008KT P6SM BKN250
     FM012100 13008KT P6SM BKN120=

USA.gov is the U.S. government's official web portal to all federal, state and local government web resources and services.